createdAt,value
2017-09-25T00:00:11.604Z,0
2017-09-25T00:01:08.932Z,0
2017-09-25T00:02:09.557Z,0
2017-09-25T00:03:09.869Z,0
2017-09-25T00:04:09.845Z,0
2017-09-25T00:05:10.173Z,0
2017-09-25T00:06:09.224Z,0
2017-09-25T00:07:09.837Z,0
2017-09-25T00:08:09.526Z,0
2017-09-25T00:09:09.220Z,0
2017-09-25T00:10:10.211Z,0
2017-09-25T00:11:09.222Z,0
2017-09-25T00:12:09.521Z,0
2017-09-25T00:13:08.901Z,0
2017-09-25T00:14:08.905Z,0
2017-09-25T00:15:10.202Z,0
2017-09-25T00:16:09.826Z,0
2017-09-25T00:17:08.898Z,0
2017-09-25T00:18:09.834Z,0
2017-09-25T00:19:09.827Z,0
2017-09-25T00:20:09.581Z,0
2017-09-25T00:21:09.210Z,0
2017-09-25T00:22:09.203Z,0
2017-09-25T00:23:09.202Z,0
2017-09-25T00:24:09.514Z,0
2017-09-25T00:25:09.547Z,0
2017-09-25T00:26:09.498Z,0
2017-09-25T00:27:09.497Z,0
2017-09-25T00:28:09.799Z,0
2017-09-25T00:29:09.806Z,0
2017-09-25T00:30:12.920Z,0
2017-09-25T00:31:08.871Z,0
2017-09-25T00:32:09.471Z,0
2017-09-25T00:33:09.483Z,0
2017-09-25T00:34:09.173Z,0
2017-09-25T00:35:09.913Z,0
2017-09-25T00:36:09.790Z,0
2017-09-25T00:37:09.162Z,0
2017-09-25T00:38:09.465Z,0
2017-09-25T00:39:09.143Z,0
2017-09-25T00:40:11.233Z,0
2017-09-25T00:41:09.145Z,0
2017-09-25T00:42:09.757Z,0
2017-09-25T00:43:09.780Z,0
2017-09-25T00:44:09.450Z,0
2017-09-25T00:45:11.507Z,0
2017-09-25T00:46:09.138Z,0
2017-09-25T00:47:09.441Z,0
2017-09-25T00:48:09.124Z,0
2017-09-25T00:49:09.748Z,0
2017-09-25T00:50:09.598Z,0
2017-09-25T00:51:09.443Z,0
2017-09-25T00:52:09.736Z,0
2017-09-25T00:53:09.733Z,0
2017-09-25T00:54:09.131Z,0
2017-09-25T00:55:09.963Z,0
2017-09-25T00:56:08.801Z,0
2017-09-25T00:57:09.411Z,0
2017-09-25T00:58:09.414Z,0
2017-09-25T00:59:09.414Z,0
2017-09-25T01:00:11.083Z,0
2017-09-25T01:01:09.422Z,0
2017-09-25T01:02:09.416Z,0
2017-09-25T01:03:09.097Z,0
2017-09-25T01:04:09.396Z,0
2017-09-25T01:05:09.366Z,0
2017-09-25T01:06:09.092Z,0
2017-09-25T01:07:09.711Z,0
2017-09-25T01:08:09.079Z,0
2017-09-25T01:09:09.072Z,0
2017-09-25T01:10:09.645Z,0
2017-09-25T01:11:09.397Z,0
2017-09-25T01:12:09.071Z,0
2017-09-25T01:13:09.065Z,0
2017-09-25T01:14:09.067Z,0
2017-09-25T01:15:10.067Z,0
2017-09-25T01:16:09.375Z,0
2017-09-25T01:17:09.054Z,0
2017-09-25T01:18:09.049Z,0
2017-09-25T01:19:09.366Z,0
2017-09-25T01:20:09.358Z,0
2017-09-25T01:21:09.357Z,0
2017-09-25T01:22:09.041Z,0
2017-09-25T01:23:09.058Z,0
2017-09-25T01:24:09.042Z,0
2017-09-25T01:25:09.379Z,0
2017-09-25T01:26:09.377Z,0
2017-09-25T01:27:09.659Z,0
2017-09-25T01:28:09.664Z,0
2017-09-25T01:29:09.663Z,0
2017-09-25T01:30:10.057Z,0
2017-09-25T01:31:09.638Z,0
2017-09-25T01:32:09.017Z,0
2017-09-25T01:33:09.337Z,0
2017-09-25T01:34:09.323Z,0
2017-09-25T01:35:09.945Z,0
2017-09-25T01:36:09.322Z,0
2017-09-25T01:37:09.001Z,0
2017-09-25T01:38:08.695Z,0
2017-09-25T01:39:09.627Z,0
2017-09-25T01:40:09.080Z,0
2017-09-25T01:41:09.307Z,0
2017-09-25T01:42:08.989Z,0
2017-09-25T01:43:08.988Z,0
2017-09-25T01:44:09.299Z,0
2017-09-25T01:45:09.993Z,0
2017-09-25T01:46:09.300Z,0
2017-09-25T01:47:09.619Z,0
2017-09-25T01:48:09.303Z,0
2017-09-25T01:49:09.310Z,0
2017-09-25T01:50:08.985Z,0
2017-09-25T01:51:08.957Z,0
2017-09-25T01:52:09.273Z,0
2017-09-25T01:53:08.650Z,0
2017-09-25T01:54:08.960Z,0
2017-09-25T01:55:09.583Z,0
2017-09-25T01:56:09.573Z,0
2017-09-25T01:57:09.568Z,0
2017-09-25T01:58:08.960Z,0
2017-09-25T01:59:09.249Z,0
2017-09-25T02:00:09.651Z,0
2017-09-25T02:01:11.848Z,0
2017-09-25T02:02:08.948Z,0
2017-09-25T02:03:09.249Z,0
2017-09-25T02:04:09.240Z,0
2017-09-25T02:05:09.928Z,0
2017-09-25T02:06:09.549Z,0
2017-09-25T02:07:09.655Z,0
2017-09-25T02:08:08.927Z,0
2017-09-25T02:09:09.228Z,0
2017-09-25T02:10:09.488Z,0
2017-09-25T02:11:09.223Z,0
2017-09-25T02:12:08.938Z,0
2017-09-25T02:13:09.209Z,0
2017-09-25T02:14:09.208Z,0
2017-09-25T02:15:09.614Z,0
2017-09-25T02:16:08.921Z,0
2017-09-25T02:17:09.201Z,0
2017-09-25T02:18:08.896Z,0
2017-09-25T02:19:09.200Z,0
2017-09-25T02:20:09.599Z,0
2017-09-25T02:21:09.988Z,0
2017-09-25T02:22:08.881Z,0
2017-09-25T02:23:08.570Z,0
2017-09-25T02:24:09.194Z,0
2017-09-25T02:25:09.536Z,0
2017-09-25T02:26:09.217Z,0
2017-09-25T02:27:08.552Z,0
2017-09-25T02:28:09.172Z,0
2017-09-25T02:29:09.178Z,0
2017-09-25T02:30:08.864Z,0
2017-09-25T02:31:12.873Z,0
2017-09-25T02:32:09.164Z,0
2017-09-25T02:33:09.153Z,0
2017-09-25T02:34:09.159Z,0
2017-09-25T02:35:09.563Z,0
2017-09-25T02:36:09.144Z,0
2017-09-25T02:37:09.142Z,0
2017-09-25T02:38:09.152Z,0
2017-09-25T02:39:09.155Z,0
2017-09-25T02:40:09.492Z,0
2017-09-25T02:41:09.134Z,0
2017-09-25T02:42:09.445Z,0
2017-09-25T02:43:09.438Z,0
2017-09-25T02:44:09.179Z,0
2017-09-25T02:45:09.861Z,0
2017-09-25T02:46:08.191Z,0
2017-09-25T02:47:09.355Z,0
2017-09-25T02:48:08.813Z,0
2017-09-25T02:49:09.426Z,0
2017-09-25T02:50:09.744Z,0
2017-09-25T02:51:09.109Z,0
2017-09-25T02:52:09.108Z,0
2017-09-25T02:53:09.102Z,0
2017-09-25T02:54:09.422Z,0
2017-09-25T02:55:09.137Z,0
2017-09-25T02:56:08.161Z,0
2017-09-25T02:57:09.399Z,0
2017-09-25T02:58:08.777Z,0
2017-09-25T02:59:08.764Z,0
2017-09-25T03:00:09.666Z,0
2017-09-25T03:01:08.762Z,0
2017-09-25T03:02:10.483Z,0
2017-09-25T03:03:09.073Z,0
2017-09-25T03:04:09.069Z,0
2017-09-25T03:05:09.788Z,0
2017-09-25T03:06:09.060Z,0
2017-09-25T03:07:08.753Z,0
2017-09-25T03:08:08.779Z,0
2017-09-25T03:09:08.427Z,0
2017-09-25T03:10:09.376Z,0
2017-09-25T03:11:09.041Z,0
2017-09-25T03:12:09.049Z,0
2017-09-25T03:13:09.037Z,0
2017-09-25T03:14:09.357Z,0
2017-09-25T03:15:09.392Z,0
2017-09-25T03:16:09.020Z,0
2017-09-25T03:17:08.711Z,0
2017-09-25T03:18:09.323Z,0
2017-09-25T03:19:09.019Z,0
2017-09-25T03:20:08.557Z,0
2017-09-25T03:21:08.699Z,0
2017-09-25T03:22:09.316Z,0
2017-09-25T03:23:09.314Z,0
2017-09-25T03:24:08.381Z,0
2017-09-25T03:25:08.997Z,0
2017-09-25T03:26:08.067Z,0
2017-09-25T03:27:08.984Z,0
2017-09-25T03:28:09.295Z,0
2017-09-25T03:29:08.672Z,0
2017-09-25T03:30:09.289Z,0
2017-09-25T03:31:08.986Z,0
2017-09-25T03:32:13.976Z,0
2017-09-25T03:33:08.966Z,0
2017-09-25T03:34:08.972Z,0
2017-09-25T03:35:08.996Z,0
2017-09-25T03:36:08.645Z,0
2017-09-25T03:37:09.268Z,0
2017-09-25T03:38:08.986Z,0
2017-09-25T03:39:08.649Z,0
2017-09-25T03:40:09.196Z,0
2017-09-25T03:41:09.255Z,0
2017-09-25T03:42:08.934Z,0
2017-09-25T03:43:08.637Z,0
2017-09-25T03:44:08.932Z,0
2017-09-25T03:45:09.546Z,0
2017-09-25T03:46:08.931Z,0
2017-09-25T03:47:08.614Z,0
2017-09-25T03:48:08.942Z,0
2017-09-25T03:49:09.219Z,0
2017-09-25T03:50:08.945Z,0
2017-09-25T03:51:08.287Z,0
2017-09-25T03:52:07.978Z,0
2017-09-25T03:53:09.218Z,0
2017-09-25T03:54:08.933Z,0
2017-09-25T03:55:08.636Z,0
2017-09-25T03:56:08.918Z,0
2017-09-25T03:57:08.887Z,0
2017-09-25T03:58:08.885Z,0
2017-09-25T03:59:08.573Z,0
2017-09-25T04:00:08.834Z,0
2017-09-25T04:01:09.187Z,0
2017-09-25T04:02:09.207Z,0
2017-09-25T04:03:10.212Z,0
2017-09-25T04:04:08.871Z,0
2017-09-25T04:05:09.535Z,0
2017-09-25T04:06:08.552Z,0
2017-09-25T04:07:08.555Z,0
2017-09-25T04:08:08.583Z,0
2017-09-25T04:09:08.226Z,0
2017-09-25T04:10:09.237Z,0
2017-09-25T04:11:08.234Z,0
2017-09-25T04:12:08.840Z,0
2017-09-25T04:13:09.141Z,0
2017-09-25T04:14:08.855Z,0
2017-09-25T04:15:08.704Z,0
2017-09-25T04:16:08.837Z,0
2017-09-25T04:17:08.832Z,0
2017-09-25T04:18:12.814Z,0
2017-09-25T04:19:08.813Z,0
2017-09-25T04:20:09.003Z,0
2017-09-25T04:21:09.124Z,0
2017-09-25T04:22:09.111Z,0
2017-09-25T04:23:08.826Z,0
2017-09-25T04:24:08.801Z,0
2017-09-25T04:25:09.162Z,0
2017-09-25T04:26:08.794Z,0
2017-09-25T04:27:08.797Z,0
2017-09-25T04:28:08.486Z,0
2017-09-25T04:29:08.769Z,0
2017-09-25T04:30:08.729Z,0
2017-09-25T04:31:09.081Z,0
2017-09-25T04:32:08.790Z,0
2017-09-25T04:33:12.326Z,0
2017-09-25T04:34:08.767Z,0
2017-09-25T04:35:09.549Z,0
2017-09-25T04:36:08.456Z,0
2017-09-25T04:37:08.747Z,0
2017-09-25T04:38:09.051Z,0
2017-09-25T04:39:08.440Z,0
2017-09-25T04:40:09.167Z,0
2017-09-25T04:41:08.737Z,0
2017-09-25T04:42:08.131Z,0
2017-09-25T04:43:08.423Z,0
2017-09-25T04:44:08.755Z,0
2017-09-25T04:45:09.351Z,0
2017-09-25T04:46:08.715Z,0
2017-09-25T04:47:08.708Z,0
2017-09-25T04:48:08.402Z,0
2017-09-25T04:49:08.699Z,0
2017-09-25T04:50:08.576Z,0
2017-09-25T04:51:08.414Z,0
2017-09-25T04:52:08.694Z,0
2017-09-25T04:53:08.998Z,0
2017-09-25T04:54:08.694Z,0
2017-09-25T04:55:08.401Z,0
2017-09-25T04:56:08.997Z,0
2017-09-25T04:57:08.687Z,0
2017-09-25T04:58:08.680Z,0
2017-09-25T04:59:08.682Z,0
2017-09-25T05:00:09.349Z,0
2017-09-25T05:01:08.970Z,0
2017-09-25T05:02:08.343Z,0
2017-09-25T05:03:08.363Z,0
2017-09-25T05:04:11.917Z,0
2017-09-25T05:05:08.942Z,0
2017-09-25T05:06:08.647Z,0
2017-09-25T05:07:08.345Z,0
2017-09-25T05:08:08.642Z,0
2017-09-25T05:09:08.638Z,0
2017-09-25T05:10:08.994Z,0
2017-09-25T05:11:08.628Z,5
2017-09-25T05:12:07.995Z,5
2017-09-25T05:13:08.616Z,5
2017-09-25T05:14:08.300Z,5
2017-09-25T05:15:08.138Z,5
2017-09-25T05:16:08.292Z,5
2017-09-25T05:17:08.605Z,5
2017-09-25T05:18:08.601Z,5
2017-09-25T05:19:08.277Z,5
2017-09-25T05:20:08.351Z,5
2017-09-25T05:21:08.583Z,10
2017-09-25T05:22:08.898Z,10
2017-09-25T05:23:08.879Z,10
2017-09-25T05:24:08.263Z,10
2017-09-25T05:25:09.145Z,10
2017-09-25T05:26:08.567Z,10
2017-09-25T05:27:08.873Z,10
2017-09-25T05:28:08.554Z,15
2017-09-25T05:29:08.601Z,15
2017-09-25T05:30:08.844Z,15
2017-09-25T05:31:08.884Z,15
2017-09-25T05:32:07.927Z,20
2017-09-25T05:33:08.242Z,20
2017-09-25T05:34:08.117Z,20
2017-09-25T05:35:09.185Z,20
2017-09-25T05:36:08.532Z,20
2017-09-25T05:37:08.832Z,20
2017-09-25T05:38:08.832Z,25
2017-09-25T05:39:08.838Z,25
2017-09-25T05:40:08.355Z,25
2017-09-25T05:41:08.506Z,25
2017-09-25T05:42:08.190Z,25
2017-09-25T05:43:08.814Z,25
2017-09-25T05:44:08.494Z,25
2017-09-25T05:45:08.767Z,25
2017-09-25T05:46:08.538Z,25
2017-09-25T05:47:08.792Z,25
2017-09-25T05:48:08.169Z,25
2017-09-25T05:49:08.499Z,25
2017-09-25T05:50:08.748Z,25
2017-09-25T05:51:08.171Z,30
2017-09-25T05:52:08.470Z,30
2017-09-25T05:53:07.845Z,30
2017-09-25T05:54:08.782Z,30
2017-09-25T05:55:08.313Z,35
2017-09-25T05:56:08.140Z,35
2017-09-25T05:57:08.445Z,40
2017-09-25T05:58:08.445Z,40
2017-09-25T05:59:08.444Z,40
2017-09-25T06:00:08.279Z,40
2017-09-25T06:01:07.809Z,40
2017-09-25T06:02:08.449Z,40
2017-09-25T06:03:08.432Z,40
2017-09-25T06:04:08.245Z,40
2017-09-25T06:05:08.731Z,40
2017-09-25T06:06:07.804Z,40
2017-09-25T06:07:08.724Z,40
2017-09-25T06:08:08.083Z,40
2017-09-25T06:09:07.781Z,40
2017-09-25T06:10:07.857Z,45
2017-09-25T06:11:08.082Z,45
2017-09-25T06:12:08.083Z,45
2017-09-25T06:13:08.399Z,45
2017-09-25T06:14:07.755Z,50
2017-09-25T06:15:08.956Z,50
2017-09-25T06:16:08.135Z,50
2017-09-25T06:17:08.376Z,45
2017-09-25T06:18:08.359Z,45
2017-09-25T06:19:10.818Z,45
2017-09-25T06:20:08.240Z,50
2017-09-25T06:21:08.685Z,55
2017-09-25T06:22:08.677Z,55
2017-09-25T06:23:08.340Z,55
2017-09-25T06:24:08.342Z,60
2017-09-25T06:25:08.424Z,60
2017-09-25T06:26:08.714Z,60
2017-09-25T06:27:08.649Z,65
2017-09-25T06:28:07.722Z,65
2017-09-25T06:29:08.329Z,70
2017-09-25T06:30:08.546Z,75
2017-09-25T06:31:08.632Z,75
2017-09-25T06:32:08.012Z,75
2017-09-25T06:33:08.322Z,80
2017-09-25T06:34:09.051Z,80
2017-09-25T06:35:07.888Z,85
2017-09-25T06:36:08.609Z,90
2017-09-25T06:37:07.997Z,90
2017-09-25T06:38:08.615Z,90
2017-09-25T06:39:08.596Z,90
2017-09-25T06:40:08.794Z,95
2017-09-25T06:41:07.986Z,95
2017-09-25T06:42:07.975Z,95
2017-09-25T06:43:07.663Z,90
2017-09-25T06:44:08.617Z,90
2017-09-25T06:45:08.071Z,100
2017-09-25T06:46:07.986Z,95
2017-09-25T06:47:08.282Z,95
2017-09-25T06:48:08.272Z,90
2017-09-25T06:49:07.967Z,95
2017-09-25T06:50:08.055Z,95
2017-09-25T06:51:08.114Z,100
2017-09-25T06:52:08.352Z,100
2017-09-25T06:53:07.954Z,105
2017-09-25T06:54:08.253Z,110
2017-09-25T06:55:07.833Z,110
2017-09-25T06:56:08.245Z,110
2017-09-25T06:57:08.007Z,110
2017-09-25T06:58:08.265Z,110
2017-09-25T06:59:08.295Z,115
2017-09-25T07:00:08.247Z,110
2017-09-25T07:01:07.933Z,120
2017-09-25T07:02:07.955Z,125
2017-09-25T07:03:08.235Z,130
2017-09-25T07:04:08.235Z,120
2017-09-25T07:05:08.881Z,120
2017-09-25T07:06:07.921Z,120
2017-09-25T07:07:07.967Z,125
2017-09-25T07:08:08.468Z,125
2017-09-25T07:09:08.661Z,130
2017-09-25T07:10:08.742Z,130
2017-09-25T07:11:08.613Z,130
2017-09-25T07:12:08.209Z,130
2017-09-25T07:13:08.217Z,140
2017-09-25T07:14:07.914Z,140
2017-09-25T07:15:08.869Z,140
2017-09-25T07:16:08.203Z,135
2017-09-25T07:17:08.199Z,145
2017-09-25T07:18:08.519Z,140
2017-09-25T07:19:08.197Z,140
2017-09-25T07:20:08.284Z,140
2017-09-25T07:21:08.504Z,150
2017-09-25T07:22:08.211Z,170
2017-09-25T07:23:08.199Z,155
2017-09-25T07:24:08.501Z,160
2017-09-25T07:25:07.930Z,150
2017-09-25T07:26:08.189Z,150
2017-09-25T07:27:07.580Z,150
2017-09-25T07:28:08.495Z,155
2017-09-25T07:29:08.193Z,165
2017-09-25T07:30:07.597Z,160
2017-09-25T07:31:08.193Z,160
2017-09-25T07:32:08.177Z,155
2017-09-25T07:33:08.223Z,155
2017-09-25T07:34:08.180Z,155
2017-09-25T07:35:09.172Z,155
2017-09-25T07:36:08.495Z,155
2017-09-25T07:37:08.187Z,170
2017-09-25T07:38:07.861Z,160
2017-09-25T07:39:07.868Z,165
2017-09-25T07:40:08.409Z,165
2017-09-25T07:41:08.485Z,165
2017-09-25T07:42:08.171Z,165
2017-09-25T07:43:08.177Z,160
2017-09-25T07:44:07.576Z,155
2017-09-25T07:45:07.906Z,165
2017-09-25T07:46:08.471Z,170
2017-09-25T07:47:07.879Z,165
2017-09-25T07:48:08.162Z,170
2017-09-25T07:49:07.565Z,180
2017-09-25T07:50:14.563Z,200
2017-09-25T07:51:07.860Z,205
2017-09-25T07:52:08.160Z,220
2017-09-25T07:53:08.466Z,200
2017-09-25T07:54:08.152Z,215
2017-09-25T07:55:08.348Z,215
2017-09-25T07:56:08.155Z,195
2017-09-25T07:57:08.464Z,200
2017-09-25T07:58:08.457Z,200
2017-09-25T07:59:08.153Z,195
2017-09-25T08:00:07.621Z,210
2017-09-25T08:01:08.502Z,200
2017-09-25T08:02:08.456Z,195
2017-09-25T08:03:07.837Z,185
2017-09-25T08:04:08.466Z,180
2017-09-25T08:05:09.275Z,210
2017-09-25T08:06:08.011Z,225
2017-09-25T08:07:07.839Z,195
2017-09-25T08:08:08.146Z,205
2017-09-25T08:09:08.137Z,195
2017-09-25T08:10:08.149Z,190
2017-09-25T08:11:07.838Z,195
2017-09-25T08:12:08.449Z,215
2017-09-25T08:13:07.832Z,220
2017-09-25T08:14:08.146Z,220
2017-09-25T08:15:07.887Z,215
2017-09-25T08:16:08.137Z,220
2017-09-25T08:17:08.134Z,215
2017-09-25T08:18:08.148Z,215
2017-09-25T08:19:08.132Z,220
2017-09-25T08:20:08.372Z,220
2017-09-25T08:21:08.129Z,225
2017-09-25T08:22:07.844Z,225
2017-09-25T08:23:08.146Z,225
2017-09-25T08:24:08.144Z,225
2017-09-25T08:25:08.782Z,225
2017-09-25T08:26:07.825Z,225
2017-09-25T08:27:08.445Z,225
2017-09-25T08:28:08.461Z,225
2017-09-25T08:29:08.447Z,225
2017-09-25T08:30:07.512Z,225
2017-09-25T08:31:08.148Z,230
2017-09-25T08:32:08.450Z,230
2017-09-25T08:33:07.829Z,230
2017-09-25T08:34:08.152Z,230
2017-09-25T08:35:12.121Z,230
2017-09-25T08:36:08.136Z,230
2017-09-25T08:37:07.821Z,235
2017-09-25T08:38:08.140Z,230
2017-09-25T08:39:08.129Z,235
2017-09-25T08:40:08.297Z,235
2017-09-25T08:41:08.436Z,235
2017-09-25T08:42:07.839Z,235
2017-09-25T08:43:08.438Z,235
2017-09-25T08:44:08.438Z,235
2017-09-25T08:45:08.598Z,235
2017-09-25T08:46:08.134Z,235
2017-09-25T08:47:07.825Z,235
2017-09-25T08:48:08.445Z,235
2017-09-25T08:49:08.123Z,235
2017-09-25T08:50:08.438Z,235
2017-09-25T08:51:08.483Z,235
2017-09-25T08:52:08.464Z,235
2017-09-25T08:53:08.132Z,235
2017-09-25T08:54:08.431Z,235
2017-09-25T08:55:08.624Z,235
2017-09-25T08:56:07.814Z,235
2017-09-25T08:57:08.432Z,235
2017-09-25T08:58:08.430Z,240
2017-09-25T08:59:08.440Z,240
2017-09-25T09:00:08.224Z,235
2017-09-25T09:01:08.434Z,235
2017-09-25T09:02:08.127Z,235
2017-09-25T09:03:08.127Z,235
2017-09-25T09:04:08.125Z,235
2017-09-25T09:05:08.745Z,235
2017-09-25T09:06:08.278Z,230
2017-09-25T09:07:08.438Z,230
2017-09-25T09:08:08.126Z,230
2017-09-25T09:09:08.130Z,230
2017-09-25T09:10:08.322Z,230
2017-09-25T09:11:08.132Z,230
2017-09-25T09:12:08.449Z,230
2017-09-25T09:13:08.138Z,230
2017-09-25T09:14:07.972Z,230
2017-09-25T09:15:09.197Z,230
2017-09-25T09:16:08.440Z,230
2017-09-25T09:17:07.826Z,230
2017-09-25T09:18:08.447Z,225
2017-09-25T09:19:08.448Z,225
2017-09-25T09:20:08.627Z,225
2017-09-25T09:21:09.251Z,225
2017-09-25T09:22:08.149Z,225
2017-09-25T09:23:08.462Z,225
2017-09-25T09:24:08.143Z,225
2017-09-25T09:25:08.252Z,225
2017-09-25T09:26:07.516Z,225
2017-09-25T09:27:08.163Z,225
2017-09-25T09:28:08.452Z,225
2017-09-25T09:29:08.138Z,225
2017-09-25T09:30:08.331Z,225
2017-09-25T09:31:08.460Z,225
2017-09-25T09:32:08.460Z,225
2017-09-25T09:33:08.155Z,220
2017-09-25T09:34:08.145Z,220
2017-09-25T09:35:08.725Z,220
2017-09-25T09:36:13.159Z,220
2017-09-25T09:37:07.853Z,220
2017-09-25T09:38:07.853Z,220
2017-09-25T09:39:08.462Z,220
2017-09-25T09:40:08.434Z,220
2017-09-25T09:41:08.196Z,220
2017-09-25T09:42:07.871Z,220
2017-09-25T09:43:07.550Z,220
2017-09-25T09:44:08.162Z,220
2017-09-25T09:45:08.269Z,215
2017-09-25T09:46:07.528Z,215
2017-09-25T09:47:08.461Z,215
2017-09-25T09:48:08.479Z,215
2017-09-25T09:49:08.163Z,215
2017-09-25T09:50:07.940Z,220
2017-09-25T09:51:08.465Z,215
2017-09-25T09:52:08.462Z,215
2017-09-25T09:53:07.873Z,215
2017-09-25T09:54:07.863Z,215
2017-09-25T09:55:08.011Z,215
2017-09-25T09:56:08.164Z,210
2017-09-25T09:57:08.172Z,210
2017-09-25T09:58:08.474Z,210
2017-09-25T09:59:08.169Z,210
2017-09-25T10:00:08.051Z,210
2017-09-25T10:01:08.168Z,210
2017-09-25T10:02:08.484Z,210
2017-09-25T10:03:08.180Z,210
2017-09-25T10:04:08.482Z,210
2017-09-25T10:05:08.170Z,210
2017-09-25T10:06:08.731Z,210
2017-09-25T10:07:07.892Z,210
2017-09-25T10:08:08.487Z,210
2017-09-25T10:09:08.184Z,210
2017-09-25T10:10:08.771Z,210
2017-09-25T10:11:08.187Z,210
2017-09-25T10:12:07.877Z,210
2017-09-25T10:13:07.873Z,210
2017-09-25T10:14:08.206Z,210
2017-09-25T10:15:08.307Z,210
2017-09-25T10:16:08.505Z,210
2017-09-25T10:17:08.520Z,205
2017-09-25T10:18:08.505Z,205
2017-09-25T10:19:08.503Z,215
2017-09-25T10:20:08.821Z,210
2017-09-25T10:21:07.901Z,205
2017-09-25T10:22:07.906Z,205
2017-09-25T10:23:08.525Z,205
2017-09-25T10:24:08.212Z,205
2017-09-25T10:25:08.389Z,205
2017-09-25T10:26:08.227Z,210
2017-09-25T10:27:08.208Z,205
2017-09-25T10:28:07.590Z,205
2017-09-25T10:29:07.910Z,205
2017-09-25T10:30:08.471Z,210
2017-09-25T10:31:07.929Z,205
2017-09-25T10:32:07.926Z,205
2017-09-25T10:33:08.236Z,205
2017-09-25T10:34:08.220Z,205
2017-09-25T10:35:07.998Z,205
2017-09-25T10:36:08.842Z,205
2017-09-25T10:37:08.236Z,205
2017-09-25T10:38:07.930Z,205
2017-09-25T10:39:08.246Z,205
2017-09-25T10:40:08.018Z,205
2017-09-25T10:41:08.239Z,205
2017-09-25T10:42:08.262Z,205
2017-09-25T10:43:08.241Z,205
2017-09-25T10:44:07.622Z,205
2017-09-25T10:45:08.051Z,205
2017-09-25T10:46:08.346Z,205
2017-09-25T10:47:08.252Z,205
2017-09-25T10:48:08.555Z,200
2017-09-25T10:49:08.607Z,200
2017-09-25T10:50:08.833Z,200
2017-09-25T10:51:08.259Z,200
2017-09-25T10:52:08.572Z,200
2017-09-25T10:53:07.968Z,200
2017-09-25T10:54:08.267Z,200
2017-09-25T10:55:08.477Z,200
2017-09-25T10:56:07.967Z,200
2017-09-25T10:57:07.963Z,200
2017-09-25T10:58:08.271Z,195
2017-09-25T10:59:07.972Z,195
2017-09-25T11:00:08.849Z,195
2017-09-25T11:01:08.599Z,195
2017-09-25T11:02:07.660Z,195
2017-09-25T11:03:08.281Z,195
2017-09-25T11:04:07.982Z,195
2017-09-25T11:05:08.983Z,200
2017-09-25T11:06:09.538Z,200
2017-09-25T11:07:08.292Z,195
2017-09-25T11:08:08.012Z,190
2017-09-25T11:09:07.991Z,190
2017-09-25T11:10:08.085Z,190
2017-09-25T11:11:07.695Z,190
2017-09-25T11:12:08.307Z,190
2017-09-25T11:13:08.311Z,190
2017-09-25T11:14:08.320Z,190
2017-09-25T11:15:07.694Z,190
2017-09-25T11:16:08.312Z,190
2017-09-25T11:17:07.705Z,190
2017-09-25T11:18:08.319Z,190
2017-09-25T11:19:08.324Z,190
2017-09-25T11:20:08.913Z,190
2017-09-25T11:21:12.645Z,195
2017-09-25T11:22:08.037Z,190
2017-09-25T11:23:07.717Z,190
2017-09-25T11:24:08.342Z,190
2017-09-25T11:25:08.957Z,190
2017-09-25T11:26:08.029Z,190
2017-09-25T11:27:08.375Z,190
2017-09-25T11:28:08.657Z,190
2017-09-25T11:29:08.349Z,190
2017-09-25T11:30:08.846Z,190
2017-09-25T11:31:08.061Z,190
2017-09-25T11:32:08.666Z,190
2017-09-25T11:33:08.666Z,190
2017-09-25T11:34:08.357Z,190
2017-09-25T11:35:08.108Z,190
2017-09-25T11:36:08.368Z,190
2017-09-25T11:37:09.920Z,195
2017-09-25T11:38:08.405Z,200
2017-09-25T11:39:08.371Z,195
2017-09-25T11:40:09.039Z,195
2017-09-25T11:41:08.707Z,195
2017-09-25T11:42:08.757Z,200
2017-09-25T11:43:08.077Z,195
2017-09-25T11:44:08.731Z,195
2017-09-25T11:45:08.604Z,195
2017-09-25T11:46:08.098Z,195
2017-09-25T11:47:08.082Z,195
2017-09-25T11:48:08.421Z,205
2017-09-25T11:49:08.090Z,200
2017-09-25T11:50:08.309Z,200
2017-09-25T11:51:08.233Z,205
2017-09-25T11:52:08.109Z,205
2017-09-25T11:53:08.722Z,205
2017-09-25T11:54:08.432Z,205
2017-09-25T11:55:09.077Z,210
2017-09-25T11:56:07.812Z,210
2017-09-25T11:57:08.440Z,210
2017-09-25T11:58:08.763Z,210
2017-09-25T11:59:08.130Z,210
2017-09-25T12:00:08.658Z,210
2017-09-25T12:01:08.443Z,210
2017-09-25T12:02:08.139Z,210
2017-09-25T12:03:08.147Z,210
2017-09-25T12:04:08.145Z,210
2017-09-25T12:05:09.151Z,210
2017-09-25T12:06:08.478Z,215
2017-09-25T12:07:13.594Z,220
2017-09-25T12:08:08.480Z,220
2017-09-25T12:09:08.462Z,220
2017-09-25T12:10:08.160Z,215
2017-09-25T12:11:08.482Z,220
2017-09-25T12:12:07.555Z,215
2017-09-25T12:13:08.789Z,215
2017-09-25T12:14:07.865Z,215
2017-09-25T12:15:08.743Z,210
2017-09-25T12:16:08.185Z,210
2017-09-25T12:17:08.188Z,210
2017-09-25T12:18:08.501Z,210
2017-09-25T12:19:08.493Z,210
2017-09-25T12:20:07.980Z,210
2017-09-25T12:21:07.884Z,210
2017-09-25T12:22:08.193Z,210
2017-09-25T12:23:09.321Z,210
2017-09-25T12:24:08.511Z,210
2017-09-25T12:25:08.308Z,215
2017-09-25T12:26:08.842Z,220
2017-09-25T12:27:08.210Z,220
2017-09-25T12:28:07.917Z,225
2017-09-25T12:29:07.916Z,225
2017-09-25T12:30:08.728Z,195
2017-09-25T12:31:08.230Z,190
2017-09-25T12:32:07.617Z,185
2017-09-25T12:33:08.237Z,190
2017-09-25T12:34:08.553Z,205
2017-09-25T12:35:08.370Z,220
2017-09-25T12:36:08.254Z,220
2017-09-25T12:37:08.247Z,220
2017-09-25T12:38:08.819Z,220
2017-09-25T12:39:08.579Z,215
2017-09-25T12:40:08.325Z,210
2017-09-25T12:41:08.260Z,205
2017-09-25T12:42:08.919Z,205
2017-09-25T12:43:08.599Z,205
2017-09-25T12:44:08.280Z,205
2017-09-25T12:45:08.912Z,205
2017-09-25T12:46:08.592Z,205
2017-09-25T12:47:08.590Z,205
2017-09-25T12:48:07.989Z,205
2017-09-25T12:49:08.918Z,205
2017-09-25T12:50:08.932Z,200
2017-09-25T12:51:08.629Z,200
2017-09-25T12:52:08.916Z,200
2017-09-25T12:53:10.412Z,205
2017-09-25T12:54:08.020Z,205
2017-09-25T12:55:08.578Z,205
2017-09-25T12:56:08.962Z,200
2017-09-25T12:57:08.646Z,200
2017-09-25T12:58:08.624Z,200
2017-09-25T12:59:08.026Z,180
2017-09-25T13:00:08.860Z,175
2017-09-25T13:01:08.660Z,190
2017-09-25T13:02:08.368Z,165
2017-09-25T13:03:08.651Z,160
2017-09-25T13:04:08.651Z,160
2017-09-25T13:05:08.925Z,155
2017-09-25T13:06:08.343Z,155
2017-09-25T13:07:08.669Z,155
2017-09-25T13:08:10.013Z,155
2017-09-25T13:09:08.981Z,155
2017-09-25T13:10:09.211Z,155
2017-09-25T13:11:09.006Z,160
2017-09-25T13:12:08.989Z,160
2017-09-25T13:13:09.021Z,160
2017-09-25T13:14:08.711Z,165
2017-09-25T13:15:08.588Z,160
2017-09-25T13:16:08.722Z,160
2017-09-25T13:17:08.398Z,155
2017-09-25T13:18:09.022Z,155
2017-09-25T13:19:08.997Z,155
2017-09-25T13:20:09.379Z,150
2017-09-25T13:21:09.045Z,150
2017-09-25T13:22:08.705Z,150
2017-09-25T13:23:09.071Z,155
2017-09-25T13:24:08.412Z,150
2017-09-25T13:25:08.982Z,150
2017-09-25T13:26:08.435Z,145
2017-09-25T13:27:08.415Z,145
2017-09-25T13:28:08.732Z,140
2017-09-25T13:29:08.725Z,140
2017-09-25T13:30:08.751Z,140
2017-09-25T13:31:08.763Z,140
2017-09-25T13:32:08.422Z,140
2017-09-25T13:33:09.048Z,140
2017-09-25T13:34:09.066Z,140
2017-09-25T13:35:08.997Z,140
2017-09-25T13:36:09.049Z,145
2017-09-25T13:37:08.436Z,145
2017-09-25T13:38:09.514Z,145
2017-09-25T13:39:08.131Z,145
2017-09-25T13:40:08.690Z,145
2017-09-25T13:41:07.823Z,145
2017-09-25T13:42:09.068Z,145
2017-09-25T13:43:08.803Z,145
2017-09-25T13:44:07.828Z,145
2017-09-25T13:45:08.845Z,150
2017-09-25T13:46:08.164Z,150
2017-09-25T13:47:09.549Z,150
2017-09-25T13:48:08.624Z,155
2017-09-25T13:49:09.085Z,150
2017-09-25T13:50:09.099Z,150
2017-09-25T13:51:08.484Z,150
2017-09-25T13:52:09.155Z,150
2017-09-25T13:53:09.202Z,155
2017-09-25T13:54:08.948Z,170
2017-09-25T13:55:09.296Z,180
2017-09-25T13:56:08.508Z,165
2017-09-25T13:57:08.812Z,160
2017-09-25T13:58:08.488Z,160
2017-09-25T14:02:31.449Z,165
2017-09-25T14:02:57.920Z,155
2017-09-25T14:03:57.946Z,155
2017-09-25T14:04:57.968Z,155
2017-09-25T14:05:58.387Z,160
2017-09-25T14:06:57.708Z,150
2017-09-25T14:07:58.342Z,150
2017-09-25T14:09:16.910Z,150
2017-09-25T14:10:05.610Z,150
2017-09-25T14:10:58.351Z,150
2017-09-25T14:11:58.375Z,170
2017-09-25T14:12:58.351Z,170
2017-09-25T14:13:58.037Z,165